Time;durP1;ratioP1;P1;durP2;ratioP2;P2;SDS_P1;SDS_P2;PMS_P1;PMS_P2;Temp;Humidity;BMP_temperature;BMP_pressure;BME280_temperature;BME280_humidity;BME280_pressure;Samples;Min_cycle;Max_cycle;Signal;HPM_P1;HPM_P2
2022/04/27 00:00:30;;;;;;;11.50;6.10;;;;;;;;;;5016600;28;20108;-64
2022/04/27 00:02:56;;;;;;;11.77;5.95;;;;;;;;;;5051264;28;20108;-60
2022/04/27 00:05:22;;;;;;;10.13;6.03;;;;;;;;;;5033422;28;20452;-60
2022/04/27 00:07:48;;;;;;;10.75;6.60;;;;;;;;;;5024929;28;20034;-61
2022/04/27 00:10:13;;;;;;;10.07;6.13;;;;;;;;;;5013107;28;20392;-61
2022/04/27 00:12:39;;;;;;;13.00;6.20;;;;;;;;;;5020447;28;20061;-60
2022/04/27 00:15:06;;;;;;;10.20;6.10;;;;;;;;;;5049001;28;20025;-60
2022/04/27 00:17:31;;;;;;;10.30;6.13;;;;;;;;;;5048702;28;20112;-61
2022/04/27 00:19:56;;;;;;;14.00;6.35;;;;;;;;;;5038001;28;20436;-60
2022/04/27 00:22:22;;;;;;;10.82;5.93;;;;;;;;;;5025810;28;20034;-61
2022/04/27 00:24:48;;;;;;;11.23;5.82;;;;;;;;;;5027683;28;20050;-60
2022/04/27 00:27:14;;;;;;;10.30;5.75;;;;;;;;;;5039087;28;20037;-61
2022/04/27 00:29:39;;;;;;;10.50;6.35;;;;;;;;;;5050529;28;20036;-62
2022/04/27 00:32:05;;;;;;;12.32;6.15;;;;;;;;;;5040285;28;20160;-61
2022/04/27 00:34:30;;;;;;;9.77;6.13;;;;;;;;;;5051124;28;20029;-62
2022/04/27 00:36:55;;;;;;;10.82;6.03;;;;;;;;;;5033302;28;20028;-64
2022/04/27 00:39:21;;;;;;;10.43;6.20;;;;;;;;;;5024633;28;20030;-62
2022/04/27 00:41:59;;;;;;;16.08;5.97;;;;;;;;;;5043142;28;20037;-62
2022/04/27 00:44:28;;;;;;;10.18;6.03;;;;;;;;;;5052808;28;20028;-61
2022/04/27 00:46:54;;;;;;;10.80;6.00;;;;;;;;;;5034404;28;20423;-62
2022/04/27 00:49:20;;;;;;;10.18;6.35;;;;;;;;;;5054470;28;20039;-61
2022/04/27 00:51:46;;;;;;;11.77;6.47;;;;;;;;;;5020879;28;20033;-61
2022/04/27 00:54:12;;;;;;;9.95;5.85;;;;;;;;;;5023851;28;20557;-61
2022/04/27 00:56:39;;;;;;;11.18;5.63;;;;;;;;;;5047035;28;20443;-61
2022/04/27 00:59:04;;;;;;;11.13;5.93;;;;;;;;;;5017213;28;20045;-61
2022/04/27 01:01:30;;;;;;;10.07;6.07;;;;;;;;;;5018888;28;20410;-62
2022/04/27 01:03:56;;;;;;;11.68;6.40;;;;;;;;;;5032927;28;20083;-61
2022/04/27 01:06:22;;;;;;;11.55;5.88;;;;;;;;;;5027109;28;20062;-61
2022/04/27 01:08:47;;;;;;;10.13;6.20;;;;;;;;;;5012258;28;20708;-61
2022/04/27 01:11:14;;;;;;;9.52;5.90;;;;;;;;;;5013623;28;20132;-62
2022/04/27 01:13:39;;;;;;;9.52;6.00;;;;;;;;;;5032748;28;20025;-61
2022/04/27 01:16:05;;;;;;;14.30;6.45;;;;;;;;;;5045434;28;20055;-61
2022/04/27 01:18:31;;;;;;;11.95;6.20;;;;;;;;;;5048473;28;20029;-62
2022/04/27 01:20:56;;;;;;;14.63;6.03;;;;;;;;;;5018917;28;20084;-61
2022/04/27 01:23:22;;;;;;;12.63;6.00;;;;;;;;;;5019472;28;20046;-62
2022/04/27 01:25:54;;;;;;;13.18;6.20;;;;;;;;;;5031241;28;20035;-61
2022/04/27 01:28:25;;;;;;;15.65;6.85;;;;;;;;;;5033712;28;20041;-61
2022/04/27 01:30:58;;;;;;;14.55;6.43;;;;;;;;;;5029943;28;20021;-61
2022/04/27 01:33:25;;;;;;;14.73;6.60;;;;;;;;;;5050752;28;20178;-61
2022/04/27 01:35:51;;;;;;;11.65;6.65;;;;;;;;;;5044857;28;20056;-61
2022/04/27 01:38:17;;;;;;;10.73;6.60;;;;;;;;;;5017055;28;20061;-61
2022/04/27 01:40:43;;;;;;;9.98;6.57;;;;;;;;;;5014675;28;20032;-61
2022/04/27 01:43:09;;;;;;;11.20;6.10;;;;;;;;;;5028236;28;20048;-61
2022/04/27 01:45:34;;;;;;;10.77;6.50;;;;;;;;;;5034637;28;20025;-62
2022/04/27 01:48:00;;;;;;;10.82;6.30;;;;;;;;;;5044991;28;20033;-61
2022/04/27 01:50:25;;;;;;;11.65;6.20;;;;;;;;;;5047752;28;20049;-61
2022/04/27 01:55:36;;;;;;;11.93;7.03;;;;;;;;;;5040075;28;20082;-61
2022/04/27 01:58:02;;;;;;;9.80;6.57;;;;;;;;;;5032649;28;20033;-62
2022/04/27 02:00:27;;;;;;;14.35;6.30;;;;;;;;;;5040267;28;20147;-61
2022/04/27 02:02:53;;;;;;;10.80;6.43;;;;;;;;;;5024568;28;20037;-61
2022/04/27 02:05:18;;;;;;;12.90;6.25;;;;;;;;;;5027024;28;20600;-61
2022/04/27 02:07:43;;;;;;;12.55;6.80;;;;;;;;;;5026560;28;20036;-61
2022/04/27 02:10:09;;;;;;;13.15;6.55;;;;;;;;;;5052946;28;20036;-62
2022/04/27 02:12:35;;;;;;;15.43;6.72;;;;;;;;;;5034955;28;20099;-62
2022/04/27 02:15:02;;;;;;;10.82;6.53;;;;;;;;;;5033028;28;20041;-62
2022/04/27 02:17:27;;;;;;;11.38;6.65;;;;;;;;;;5035619;28;20100;-61
2022/04/27 02:19:53;;;;;;;13.85;7.13;;;;;;;;;;5044890;28;20357;-61
2022/04/27 02:22:18;;;;;;;12.38;6.93;;;;;;;;;;5019814;28;20064;-61
2022/04/27 02:24:44;;;;;;;13.25;7.22;;;;;;;;;;5012073;28;20104;-61
2022/04/27 02:27:09;;;;;;;15.32;7.15;;;;;;;;;;5010630;28;20030;-61
2022/04/27 02:29:34;;;;;;;11.05;6.70;;;;;;;;;;5011462;28;20534;-61
2022/04/27 02:32:01;;;;;;;12.13;7.25;;;;;;;;;;5033798;28;20025;-61
2022/04/27 02:34:26;;;;;;;11.55;6.95;;;;;;;;;;5051978;28;20373;-61
2022/04/27 02:36:51;;;;;;;13.23;6.80;;;;;;;;;;5037183;28;20037;-61
2022/04/27 02:39:17;;;;;;;13.95;7.18;;;;;;;;;;5028422;28;20037;-61
2022/04/27 02:41:42;;;;;;;11.68;7.53;;;;;;;;;;5025528;28;20084;-61
2022/04/27 02:44:07;;;;;;;14.23;7.60;;;;;;;;;;5010946;28;20053;-62
2022/04/27 02:46:33;;;;;;;12.05;7.30;;;;;;;;;;5024799;28;20040;-61
2022/04/27 02:51:51;;;;;;;13.15;7.18;;;;;;;;;;5015660;28;20103;-61
2022/04/27 02:54:21;;;;;;;15.00;7.35;;;;;;;;;;5032132;28;20030;-61
2022/04/27 02:56:48;;;;;;;12.75;7.15;;;;;;;;;;5021978;28;20026;-61
2022/04/27 02:59:14;;;;;;;14.27;7.75;;;;;;;;;;5030596;28;20064;-61
2022/04/27 03:01:40;;;;;;;15.80;8.68;;;;;;;;;;5028828;28;20033;-61
2022/04/27 03:04:06;;;;;;;15.75;9.80;;;;;;;;;;5016975;28;20029;-61
2022/04/27 03:06:31;;;;;;;17.10;8.95;;;;;;;;;;5015765;28;20073;-61
2022/04/27 03:08:57;;;;;;;16.50;8.43;;;;;;;;;;5050050;28;20057;-61
2022/04/27 03:11:22;;;;;;;15.88;8.25;;;;;;;;;;5050102;28;20033;-61
2022/04/27 03:13:47;;;;;;;12.82;7.90;;;;;;;;;;5017936;28;20424;-61
2022/04/27 03:16:13;;;;;;;13.18;8.30;;;;;;;;;;5011428;28;20387;-61
2022/04/27 03:18:38;;;;;;;18.83;8.02;;;;;;;;;;5043808;28;20029;-62
2022/04/27 03:21:03;;;;;;;13.73;7.97;;;;;;;;;;5050090;28;20383;-61
2022/04/27 03:23:29;;;;;;;12.20;8.23;;;;;;;;;;5011320;28;20103;-61
2022/04/27 03:25:55;;;;;;;13.82;7.88;;;;;;;;;;5010257;28;20614;-61
2022/04/27 03:28:21;;;;;;;15.73;8.48;;;;;;;;;;5048696;28;20029;-61
2022/04/27 03:30:49;;;;;;;17.08;8.70;;;;;;;;;;5050760;28;20074;-61
2022/04/27 03:33:15;;;;;;;16.98;8.27;;;;;;;;;;5044351;28;20033;-61
2022/04/27 03:35:40;;;;;;;15.10;8.27;;;;;;;;;;5039667;28;20451;-61
2022/04/27 03:38:07;;;;;;;15.38;8.73;;;;;;;;;;5028684;28;20030;-61
2022/04/27 03:40:32;;;;;;;13.75;8.70;;;;;;;;;;5046429;28;20116;-61
2022/04/27 03:42:58;;;;;;;16.80;8.60;;;;;;;;;;5021696;28;20192;-61
2022/04/27 03:45:23;;;;;;;17.38;8.43;;;;;;;;;;5011181;28;20087;-61
2022/04/27 03:47:49;;;;;;;14.70;8.25;;;;;;;;;;5035465;28;20049;-61
2022/04/27 03:50:15;;;;;;;12.15;8.02;;;;;;;;;;5047813;28;20025;-61
2022/04/27 03:52:44;;;;;;;16.73;9.00;;;;;;;;;;5024806;28;20028;-62
2022/04/27 03:55:10;;;;;;;14.25;8.68;;;;;;;;;;5050937;28;20079;-61
2022/04/27 03:57:37;;;;;;;15.75;8.77;;;;;;;;;;5032085;28;20070;-61
2022/04/27 04:00:04;;;;;;;17.33;9.00;;;;;;;;;;5030968;28;20026;-61
2022/04/27 04:02:30;;;;;;;15.38;8.65;;;;;;;;;;5035199;28;20032;-61
2022/04/27 04:04:55;;;;;;;16.85;9.52;;;;;;;;;;5024812;28;20459;-64
2022/04/27 04:07:21;;;;;;;16.77;9.32;;;;;;;;;;5018113;28;20038;-62
2022/04/27 04:09:46;;;;;;;22.15;9.73;;;;;;;;;;5012491;28;20034;-62
2022/04/27 04:12:13;;;;;;;17.67;9.35;;;;;;;;;;5013816;28;20030;-61
2022/04/27 04:14:39;;;;;;;15.95;9.75;;;;;;;;;;5014493;28;20365;-62
2022/04/27 04:17:05;;;;;;;22.35;9.65;;;;;;;;;;5017687;28;20037;-61
2022/04/27 04:19:34;;;;;;;15.48;9.35;;;;;;;;;;5014433;28;20033;-61
2022/04/27 04:22:00;;;;;;;16.50;9.07;;;;;;;;;;5053819;28;20509;-62
2022/04/27 04:24:26;;;;;;;16.73;9.50;;;;;;;;;;5054267;28;20479;-61
2022/04/27 04:29:35;;;;;;;19.08;9.15;;;;;;;;;;5034710;28;20078;-61
2022/04/27 04:32:00;;;;;;;19.80;9.63;;;;;;;;;;5028041;28;20041;-61
2022/04/27 04:34:26;;;;;;;23.33;10.20;;;;;;;;;;5048476;28;20025;-61
2022/04/27 04:36:51;;;;;;;17.08;9.55;;;;;;;;;;5035775;28;20172;-61
2022/04/27 04:39:17;;;;;;;15.18;9.25;;;;;;;;;;5033848;28;20029;-61
2022/04/27 04:41:42;;;;;;;18.05;9.98;;;;;;;;;;5047795;28;20036;-61
2022/04/27 04:44:08;;;;;;;16.95;9.98;;;;;;;;;;5052747;28;20552;-60
2022/04/27 04:46:33;;;;;;;18.80;10.43;;;;;;;;;;5053275;28;20029;-61
2022/04/27 04:48:58;;;;;;;17.77;9.57;;;;;;;;;;5051384;28;20067;-61
2022/04/27 04:51:24;;;;;;;16.80;10.18;;;;;;;;;;5027672;28;20044;-60
2022/04/27 04:53:49;;;;;;;16.35;9.32;;;;;;;;;;5041869;28;20060;-62
2022/04/27 04:56:15;;;;;;;16.73;9.50;;;;;;;;;;5036727;28;20101;-61
2022/04/27 04:58:40;;;;;;;21.48;10.07;;;;;;;;;;5016382;28;20103;-62
2022/04/27 05:01:06;;;;;;;17.65;9.85;;;;;;;;;;5025791;28;20071;-62
2022/04/27 05:03:36;;;;;;;16.42;9.40;;;;;;;;;;5035241;28;20402;-61
2022/04/27 05:06:02;;;;;;;17.67;10.05;;;;;;;;;;5048729;28;20068;-62
2022/04/27 05:08:27;;;;;;;17.38;9.82;;;;;;;;;;5036575;28;20119;-62
2022/04/27 05:10:53;;;;;;;17.13;9.77;;;;;;;;;;5042132;28;20044;-62
2022/04/27 05:13:18;;;;;;;18.77;8.98;;;;;;;;;;5041711;28;20037;-62
2022/04/27 05:15:44;;;;;;;16.17;9.45;;;;;;;;;;5052826;28;20050;-65
2022/04/27 05:18:09;;;;;;;15.57;9.23;;;;;;;;;;5013600;28;20038;-62
2022/04/27 05:20:37;;;;;;;17.40;9.52;;;;;;;;;;5012519;28;20030;-61
2022/04/27 05:23:03;;;;;;;15.75;9.00;;;;;;;;;;5013141;28;20053;-61
2022/04/27 05:25:28;;;;;;;15.73;9.18;;;;;;;;;;5014582;28;20036;-62
2022/04/27 05:27:54;;;;;;;18.83;9.35;;;;;;;;;;5013046;28;20030;-61
2022/04/27 05:33:03;;;;;;;16.52;9.32;;;;;;;;;;5022522;28;20104;-62
2022/04/27 05:35:28;;;;;;;17.02;9.90;;;;;;;;;;5032491;28;20033;-65
2022/04/27 05:37:54;;;;;;;14.73;8.35;;;;;;;;;;5031879;28;20033;-65
2022/04/27 05:40:20;;;;;;;18.45;9.00;;;;;;;;;;5028346;28;20029;-70
2022/04/27 05:42:48;;;;;;;18.35;9.48;;;;;;;;;;5031677;28;20043;-66
2022/04/27 05:45:14;;;;;;;16.48;8.85;;;;;;;;;;5033547;28;20040;-68
2022/04/27 05:47:40;;;;;;;14.88;8.85;;;;;;;;;;5035258;28;20466;-69
2022/04/27 05:50:06;;;;;;;13.88;8.63;;;;;;;;;;5044753;28;20040;-70
2022/04/27 05:52:49;;;;;;;16.02;9.38;;;;;;;;;;5029719;28;20033;-69
2022/04/27 05:55:15;;;;;;;14.45;9.13;;;;;;;;;;5033616;28;20040;-68
2022/04/27 05:57:40;;;;;;;18.48;9.30;;;;;;;;;;5033451;28;20033;-68
2022/04/27 06:00:06;;;;;;;15.68;9.02;;;;;;;;;;5032228;28;20036;-69
2022/04/27 06:02:32;;;;;;;13.55;8.60;;;;;;;;;;5033066;28;20034;-73
2022/04/27 06:04:57;;;;;;;18.02;9.10;;;;;;;;;;5032149;28;20488;-72
2022/04/27 06:07:23;;;;;;;19.85;9.00;;;;;;;;;;5015384;28;20038;-68
2022/04/27 06:09:48;;;;;;;15.10;9.82;;;;;;;;;;5011241;28;20426;-68
2022/04/27 06:12:14;;;;;;;14.45;8.93;;;;;;;;;;5013205;28;20108;-69
2022/04/27 06:14:39;;;;;;;18.10;9.60;;;;;;;;;;5011879;28;20024;-67
2022/04/27 06:17:05;;;;;;;17.40;9.15;;;;;;;;;;5011830;28;20109;-68
2022/04/27 06:19:30;;;;;;;15.02;9.18;;;;;;;;;;5012091;28;20088;-67
2022/04/27 06:21:56;;;;;;;16.25;8.00;;;;;;;;;;5012205;28;20444;-67
2022/04/27 06:24:21;;;;;;;15.40;8.93;;;;;;;;;;5012992;28;20056;-67
2022/04/27 06:26:46;;;;;;;16.90;8.60;;;;;;;;;;5012465;28;20388;-66
2022/04/27 06:29:12;;;;;;;14.82;8.52;;;;;;;;;;5011467;28;20034;-67
2022/04/27 06:31:37;;;;;;;15.18;8.25;;;;;;;;;;5012036;28;20029;-68
2022/04/27 06:34:03;;;;;;;15.13;8.43;;;;;;;;;;5010946;28;20042;-67
2022/04/27 06:36:28;;;;;;;15.65;8.07;;;;;;;;;;5013347;28;20425;-68
2022/04/27 06:38:54;;;;;;;13.77;8.20;;;;;;;;;;5012167;28;20455;-66
2022/04/27 06:41:19;;;;;;;14.07;7.63;;;;;;;;;;5012926;28;20022;-68
2022/04/27 06:43:45;;;;;;;15.35;7.72;;;;;;;;;;5012650;28;20029;-67
2022/04/27 06:46:10;;;;;;;13.93;7.72;;;;;;;;;;5010739;28;20029;-67
2022/04/27 06:48:35;;;;;;;14.25;7.90;;;;;;;;;;5013837;28;20030;-67
2022/04/27 06:51:01;;;;;;;11.68;7.78;;;;;;;;;;5030300;28;20360;-67
2022/04/27 06:53:26;;;;;;;18.80;7.28;;;;;;;;;;5010548;28;20038;-64
2022/04/27 06:55:52;;;;;;;14.68;7.68;;;;;;;;;;5011531;28;20034;-66
2022/04/27 06:58:17;;;;;;;14.00;6.82;;;;;;;;;;5012664;28;20448;-67
2022/04/27 07:00:43;;;;;;;14.38;6.70;;;;;;;;;;5012308;28;20400;-66
2022/04/27 07:03:08;;;;;;;16.13;7.45;;;;;;;;;;5011431;28;20039;-67
2022/04/27 07:05:34;;;;;;;13.55;6.95;;;;;;;;;;5010954;28;20037;-67
2022/04/27 07:08:00;;;;;;;12.25;7.10;;;;;;;;;;5011837;28;20441;-66
2022/04/27 07:10:25;;;;;;;11.90;6.90;;;;;;;;;;5012527;28;20113;-67
2022/04/27 07:12:51;;;;;;;10.38;6.85;;;;;;;;;;5010402;28;20022;-64
2022/04/27 07:15:17;;;;;;;14.45;7.65;;;;;;;;;;5012372;28;20065;-67
2022/04/27 07:17:43;;;;;;;11.57;6.50;;;;;;;;;;5012912;28;20203;-68
2022/04/27 07:20:09;;;;;;;10.80;6.88;;;;;;;;;;5025745;28;20241;-68
2022/04/27 07:22:35;;;;;;;12.02;7.20;;;;;;;;;;5032862;28;20032;-67
2022/04/27 07:25:01;;;;;;;13.38;7.22;;;;;;;;;;5031456;28;20042;-66
2022/04/27 07:27:27;;;;;;;14.00;8.07;;;;;;;;;;5031746;28;20057;-67
2022/04/27 07:29:53;;;;;;;13.77;6.95;;;;;;;;;;5030777;28;20037;-65
2022/04/27 07:32:19;;;;;;;12.75;7.30;;;;;;;;;;5032150;28;20060;-66
2022/04/27 07:34:44;;;;;;;12.00;7.10;;;;;;;;;;5016293;28;20054;-66
2022/04/27 07:37:10;;;;;;;15.00;7.47;;;;;;;;;;5011287;28;20036;-66
2022/04/27 07:39:35;;;;;;;15.52;7.30;;;;;;;;;;5011019;28;20033;-67
2022/04/27 07:42:01;;;;;;;11.93;6.95;;;;;;;;;;5010077;28;20499;-66
2022/04/27 07:44:27;;;;;;;14.23;6.80;;;;;;;;;;5013862;28;20061;-67
2022/04/27 07:46:52;;;;;;;9.10;6.30;;;;;;;;;;5013900;28;20472;-64
2022/04/27 07:49:19;;;;;;;11.45;6.25;;;;;;;;;;5015227;28;20129;-66
2022/04/27 07:51:46;;;;;;;12.27;6.60;;;;;;;;;;5015807;28;20041;-66
2022/04/27 07:54:12;;;;;;;10.52;6.43;;;;;;;;;;5013718;28;20030;-66
2022/04/27 07:56:37;;;;;;;11.38;6.63;;;;;;;;;;5014345;28;20091;-66
2022/04/27 07:59:03;;;;;;;12.57;6.70;;;;;;;;;;5014956;28;20034;-66
2022/04/27 08:01:28;;;;;;;11.50;6.47;;;;;;;;;;5015485;28;20033;-66
2022/04/27 08:03:54;;;;;;;11.70;5.90;;;;;;;;;;5014413;28;20377;-65
2022/04/27 08:06:19;;;;;;;12.05;5.93;;;;;;;;;;5015623;28;20030;-66
2022/04/27 08:08:44;;;;;;;9.18;4.82;;;;;;;;;;5015508;28;20460;-67
2022/04/27 08:11:13;;;;;;;10.23;5.18;;;;;;;;;;5013166;28;20117;-66
2022/04/27 08:13:38;;;;;;;7.68;4.78;;;;;;;;;;5015541;28;20033;-66
2022/04/27 08:16:04;;;;;;;8.05;4.60;;;;;;;;;;5014344;28;20030;-66
2022/04/27 08:18:29;;;;;;;8.88;5.05;;;;;;;;;;5017632;28;20071;-67
2022/04/27 08:23:40;;;;;;;7.70;4.72;;;;;;;;;;5027077;28;20130;-67
2022/04/27 08:26:07;;;;;;;10.13;5.13;;;;;;;;;;5049667;28;20493;-68
2022/04/27 08:28:33;;;;;;;10.95;5.57;;;;;;;;;;5050190;28;20036;-66
2022/04/27 08:30:59;;;;;;;9.13;5.00;;;;;;;;;;5032305;28;20514;-66
2022/04/27 08:33:24;;;;;;;7.65;5.10;;;;;;;;;;5050613;28;20122;-66
2022/04/27 08:35:50;;;;;;;9.55;5.38;;;;;;;;;;5051518;28;20360;-66
2022/04/27 08:38:15;;;;;;;9.77;5.40;;;;;;;;;;5031677;28;20041;-67
2022/04/27 08:40:43;;;;;;;10.35;5.43;;;;;;;;;;5050178;28;20036;-66
2022/04/27 08:43:11;;;;;;;10.10;5.47;;;;;;;;;;5033865;28;20029;-65
2022/04/27 08:45:41;;;;;;;10.63;5.60;;;;;;;;;;5049477;28;20087;-65
2022/04/27 08:48:08;;;;;;;10.93;5.00;;;;;;;;;;5034486;28;20029;-65
2022/04/27 08:50:34;;;;;;;11.30;5.43;;;;;;;;;;5047631;28;20044;-67
2022/04/27 08:53:00;;;;;;;10.93;5.68;;;;;;;;;;5042013;28;20025;-66
2022/04/27 08:55:30;;;;;;;11.45;5.22;;;;;;;;;;5040279;28;20035;-64
2022/04/27 08:58:12;;;;;;;7.80;5.30;;;;;;;;;;5019138;28;20029;-62
2022/04/27 09:00:38;;;;;;;9.07;5.53;;;;;;;;;;5036407;28;20029;-67
2022/04/27 09:03:34;;;;;;;10.88;5.47;;;;;;;;;;5034634;28;20102;-66
2022/04/27 09:06:09;;;;;;;11.48;5.75;;;;;;;;;;5038995;28;20528;-65
2022/04/27 09:08:46;;;;;;;9.00;5.25;;;;;;;;;;5037598;28;20397;-67
2022/04/27 09:11:17;;;;;;;10.82;5.68;;;;;;;;;;5047269;28;20056;-66
2022/04/27 09:13:50;;;;;;;10.15;5.68;;;;;;;;;;5043869;28;20393;-66
2022/04/27 09:16:18;;;;;;;9.82;5.50;;;;;;;;;;5050343;28;20025;-67
2022/04/27 09:21:55;;;;;;;11.77;5.78;;;;;;;;;;5050041;28;20032;-64
2022/04/27 09:24:20;;;;;;;9.52;5.53;;;;;;;;;;5016403;28;20108;-66
2022/04/27 09:26:58;;;;;;;11.60;5.57;;;;;;;;;;5017870;28;20361;-67
2022/04/27 09:29:25;;;;;;;10.55;5.72;;;;;;;;;;5024779;28;20519;-68
2022/04/27 09:31:57;;;;;;;10.02;5.43;;;;;;;;;;5033922;28;20060;-66
2022/04/27 09:34:29;;;;;;;8.23;5.43;;;;;;;;;;5034142;28;20044;-66
2022/04/27 09:37:00;;;;;;;9.27;5.45;;;;;;;;;;5032686;28;20029;-63
2022/04/27 09:39:26;;;;;;;10.38;5.72;;;;;;;;;;5043075;28;20033;-66
2022/04/27 09:41:52;;;;;;;10.10;5.40;;;;;;;;;;5031258;28;20441;-66
2022/04/27 09:44:28;;;;;;;7.72;5.45;;;;;;;;;;5033923;28;20498;-65
2022/04/27 09:46:54;;;;;;;8.70;5.40;;;;;;;;;;5032970;28;20033;-65
2022/04/27 09:49:19;;;;;;;9.70;5.63;;;;;;;;;;5040630;28;20035;-65
2022/04/27 09:51:48;;;;;;;13.07;5.70;;;;;;;;;;5052800;28;20115;-67
2022/04/27 09:54:30;;;;;;;10.20;6.05;;;;;;;;;;5052132;28;20025;-65
2022/04/27 09:56:57;;;;;;;10.32;6.05;;;;;;;;;;5015702;28;20045;-66
2022/04/27 09:59:30;;;;;;;12.40;6.60;;;;;;;;;;5030133;28;20033;-65
2022/04/27 10:01:58;;;;;;;11.25;5.90;;;;;;;;;;5041248;28;20109;-66
2022/04/27 10:04:28;;;;;;;11.45;5.93;;;;;;;;;;5023492;28;20562;-65
2022/04/27 10:06:56;;;;;;;10.00;5.67;;;;;;;;;;5031556;28;20041;-67
2022/04/27 10:09:22;;;;;;;12.70;5.35;;;;;;;;;;5039175;28;20096;-68
2022/04/27 10:11:48;;;;;;;8.77;5.85;;;;;;;;;;5035581;28;20523;-68
2022/04/27 10:14:13;;;;;;;9.70;5.63;;;;;;;;;;5046347;28;20125;-68
2022/04/27 10:16:39;;;;;;;10.60;5.90;;;;;;;;;;5036631;28;20030;-67
2022/04/27 10:19:09;;;;;;;9.48;6.00;;;;;;;;;;5029271;28;20112;-66
2022/04/27 10:21:57;;;;;;;10.30;6.00;;;;;;;;;;5034706;28;20061;-67
2022/04/27 10:24:35;;;;;;;8.77;6.43;;;;;;;;;;5050510;28;20144;-66
2022/04/27 10:27:23;;;;;;;9.70;5.80;;;;;;;;;;5036927;28;20368;-65
2022/04/27 10:30:02;;;;;;;10.07;6.28;;;;;;;;;;5049390;28;20032;-66
2022/04/27 10:32:34;;;;;;;14.55;6.05;;;;;;;;;;5051655;28;20035;-66
2022/04/27 10:35:11;;;;;;;8.38;5.43;;;;;;;;;;5033321;28;20479;-64
2022/04/27 10:37:54;;;;;;;8.52;6.38;;;;;;;;;;5031112;28;20084;-65
2022/04/27 10:40:40;;;;;;;9.95;6.82;;;;;;;;;;5049590;28;20068;-67
2022/04/27 10:43:12;;;;;;;9.82;6.65;;;;;;;;;;5031495;28;20470;-67
2022/04/27 10:45:45;;;;;;;10.05;6.35;;;;;;;;;;5047012;28;20084;-66
2022/04/27 10:48:16;;;;;;;9.38;6.25;;;;;;;;;;5051689;28;20025;-66
2022/04/27 10:50:57;;;;;;;10.98;6.50;;;;;;;;;;5042211;28;20067;-68
2022/04/27 10:53:29;;;;;;;12.30;7.18;;;;;;;;;;5027478;28;20064;-65
2022/04/27 10:55:59;;;;;;;9.50;6.30;;;;;;;;;;5011621;28;20030;-66
2022/04/27 10:58:33;;;;;;;12.55;7.50;;;;;;;;;;5021722;28;20044;-67
2022/04/27 11:01:01;;;;;;;11.70;7.55;;;;;;;;;;5031890;28;20029;-66
2022/04/27 11:03:28;;;;;;;9.48;6.50;;;;;;;;;;5030540;28;20047;-67
2022/04/27 11:05:58;;;;;;;8.93;6.43;;;;;;;;;;5043275;28;20064;-66
2022/04/27 11:08:38;;;;;;;10.43;6.90;;;;;;;;;;5047002;28;20044;-68
2022/04/27 11:11:06;;;;;;;10.13;7.22;;;;;;;;;;5038726;28;20115;-64
2022/04/27 11:13:36;;;;;;;11.18;6.10;;;;;;;;;;5034919;28;20033;-68
2022/04/27 11:16:12;;;;;;;8.70;6.28;;;;;;;;;;5044189;28;20587;-65
2022/04/27 11:18:58;;;;;;;8.18;5.88;;;;;;;;;;5047753;28;20056;-66
2022/04/27 11:21:31;;;;;;;9.48;6.22;;;;;;;;;;5046557;28;20033;-67
2022/04/27 11:24:00;;;;;;;10.88;6.22;;;;;;;;;;5051890;28;20049;-68
2022/04/27 11:26:26;;;;;;;10.15;6.88;;;;;;;;;;5043394;28;20037;-67
2022/04/27 11:28:57;;;;;;;8.43;6.53;;;;;;;;;;5047638;28;20075;-68
2022/04/27 11:31:23;;;;;;;10.95;6.53;;;;;;;;;;5048384;28;20032;-68
2022/04/27 11:33:48;;;;;;;8.95;6.70;;;;;;;;;;5050288;28;20044;-67
2022/04/27 11:36:21;;;;;;;8.77;6.57;;;;;;;;;;5041767;28;20522;-67
2022/04/27 11:38:47;;;;;;;9.57;6.43;;;;;;;;;;5048331;28;20025;-68
2022/04/27 11:41:14;;;;;;;9.30;6.95;;;;;;;;;;5037773;28;20059;-64
2022/04/27 11:43:40;;;;;;;10.98;6.70;;;;;;;;;;5047355;28;20032;-64
2022/04/27 11:46:08;;;;;;;9.68;6.47;;;;;;;;;;5028709;28;20026;-64
2022/04/27 11:48:33;;;;;;;10.90;6.25;;;;;;;;;;5015761;28;20042;-63
2022/04/27 11:51:01;;;;;;;9.95;6.90;;;;;;;;;;5039343;28;20083;-63
2022/04/27 11:53:26;;;;;;;9.75;7.18;;;;;;;;;;5030159;28;20419;-63
2022/04/27 11:55:52;;;;;;;9.70;6.15;;;;;;;;;;5045610;28;20391;-63
2022/04/27 11:58:23;;;;;;;10.02;6.18;;;;;;;;;;5048988;28;20033;-63
2022/04/27 12:00:51;;;;;;;9.35;6.38;;;;;;;;;;5041558;28;20116;-63
2022/04/27 12:03:18;;;;;;;8.48;6.10;;;;;;;;;;5046884;28;20470;-64
2022/04/27 12:05:50;;;;;;;9.52;6.32;;;;;;;;;;5050587;28;20501;-63
2022/04/27 12:08:19;;;;;;;9.48;6.35;;;;;;;;;;5022185;28;20510;-63
2022/04/27 12:10:46;;;;;;;10.13;6.47;;;;;;;;;;5034159;28;20040;-63
2022/04/27 12:13:15;;;;;;;10.73;7.03;;;;;;;;;;5030848;28;20032;-63
2022/04/27 12:15:43;;;;;;;9.73;6.53;;;;;;;;;;5050028;28;20028;-63
2022/04/27 12:18:18;;;;;;;8.95;6.18;;;;;;;;;;5038355;28;20029;-63
2022/04/27 12:20:45;;;;;;;9.15;6.18;;;;;;;;;;5033536;28;20113;-62
2022/04/27 12:23:15;;;;;;;9.93;6.70;;;;;;;;;;5029976;28;20065;-62
2022/04/27 12:25:42;;;;;;;13.02;6.55;;;;;;;;;;5042298;28;20061;-63
2022/04/27 12:28:11;;;;;;;11.00;7.10;;;;;;;;;;5050206;28;20223;-62
2022/04/27 12:30:57;;;;;;;9.57;6.00;;;;;;;;;;5050279;28;20087;-61
2022/04/27 12:33:43;;;;;;;10.07;6.65;;;;;;;;;;5051287;28;20119;-63
2022/04/27 12:39:08;;;;;;;7.88;6.10;;;;;;;;;;5038166;28;20043;-63
2022/04/27 12:41:37;;;;;;;9.48;5.90;;;;;;;;;;5054429;28;20067;-62
2022/04/27 12:44:07;;;;;;;10.02;6.82;;;;;;;;;;5033391;28;20036;-62
2022/04/27 12:46:32;;;;;;;8.57;6.72;;;;;;;;;;5034283;28;20168;-63
2022/04/27 12:49:06;;;;;;;8.23;6.35;;;;;;;;;;5033898;28;20116;-64
2022/04/27 12:51:35;;;;;;;8.50;6.57;;;;;;;;;;5030836;28;20032;-63
2022/04/27 12:54:04;;;;;;;11.70;6.50;;;;;;;;;;5032362;28;20053;-64
2022/04/27 12:56:35;;;;;;;11.45;6.32;;;;;;;;;;5053651;28;20120;-64
2022/04/27 12:59:08;;;;;;;11.07;6.90;;;;;;;;;;5054152;28;20151;-63
2022/04/27 13:01:34;;;;;;;9.77;6.65;;;;;;;;;;5052813;28;20036;-61
2022/04/27 13:03:59;;;;;;;10.20;7.78;;;;;;;;;;5053850;28;20033;-63
2022/04/27 13:06:25;;;;;;;8.80;6.30;;;;;;;;;;5053468;28;20029;-63
2022/04/27 13:08:51;;;;;;;9.38;6.95;;;;;;;;;;5044497;28;20392;-63
2022/04/27 13:14:02;;;;;;;8.10;6.25;;;;;;;;;;5034083;28;20039;-63
2022/04/27 13:16:27;;;;;;;9.45;6.60;;;;;;;;;;5032927;28;20108;-62
2022/04/27 13:18:55;;;;;;;9.95;6.40;;;;;;;;;;5033869;28;20033;-62
2022/04/27 13:21:20;;;;;;;9.88;6.35;;;;;;;;;;5031952;28;20076;-62
2022/04/27 13:23:46;;;;;;;8.75;6.78;;;;;;;;;;5034155;28;20045;-61
2022/04/27 13:26:11;;;;;;;11.68;7.25;;;;;;;;;;5032255;28;20543;-63
2022/04/27 13:28:40;;;;;;;10.82;6.90;;;;;;;;;;5034289;28;20459;-62
2022/04/27 13:31:09;;;;;;;10.13;7.20;;;;;;;;;;5042319;28;20033;-61
2022/04/27 13:33:35;;;;;;;10.37;6.80;;;;;;;;;;5047585;28;20034;-61
2022/04/27 13:36:01;;;;;;;9.60;6.47;;;;;;;;;;5035956;28;20041;-62
2022/04/27 13:38:27;;;;;;;10.50;6.47;;;;;;;;;;5039232;28;20394;-61
2022/04/27 13:40:54;;;;;;;10.23;6.20;;;;;;;;;;5051737;28;20029;-60
2022/04/27 13:43:20;;;;;;;13.25;6.90;;;;;;;;;;5034009;28;20084;-61
2022/04/27 13:45:45;;;;;;;9.30;6.70;;;;;;;;;;5046740;28;20033;-62
2022/04/27 13:48:12;;;;;;;11.82;6.43;;;;;;;;;;5035235;28;20403;-62
2022/04/27 13:50:39;;;;;;;7.82;6.25;;;;;;;;;;5031857;28;20033;-62
2022/04/27 13:53:05;;;;;;;10.10;6.30;;;;;;;;;;5052540;28;20059;-62
2022/04/27 13:55:32;;;;;;;11.85;7.20;;;;;;;;;;5046397;28;20486;-61
2022/04/27 13:57:57;;;;;;;10.85;6.15;;;;;;;;;;5049716;28;20036;-62
2022/04/27 14:00:23;;;;;;;8.43;6.43;;;;;;;;;;5027651;28;20060;-61
2022/04/27 14:02:49;;;;;;;8.70;6.55;;;;;;;;;;5035563;28;20044;-61
2022/04/27 14:05:15;;;;;;;8.40;6.30;;;;;;;;;;5052184;28;20068;-62
2022/04/27 14:07:44;;;;;;;9.20;6.00;;;;;;;;;;5045452;28;20040;-61
2022/04/27 14:10:12;;;;;;;11.30;6.40;;;;;;;;;;5053017;28;20068;-62
2022/04/27 14:15:22;;;;;;;11.15;6.70;;;;;;;;;;5040100;28;20168;-61
2022/04/27 14:20:32;;;;;;;10.30;6.32;;;;;;;;;;5051055;28;20051;-61
2022/04/27 14:22:58;;;;;;;11.15;7.20;;;;;;;;;;5032608;28;20029;-62
2022/04/27 14:25:23;;;;;;;11.20;7.78;;;;;;;;;;5050829;28;20036;-61
2022/04/27 14:27:49;;;;;;;10.15;7.75;;;;;;;;;;5037753;28;20033;-61
2022/04/27 14:30:16;;;;;;;12.18;8.48;;;;;;;;;;5050484;28;20381;-59
2022/04/27 14:32:42;;;;;;;9.73;7.50;;;;;;;;;;5050286;28;20098;-61
2022/04/27 14:35:07;;;;;;;9.93;7.60;;;;;;;;;;5004704;28;20427;-60
2022/04/27 14:37:33;;;;;;;10.75;8.00;;;;;;;;;;5014202;28;20123;-62
2022/04/27 14:39:59;;;;;;;11.10;7.85;;;;;;;;;;5052271;28;20043;-61
2022/04/27 14:42:24;;;;;;;11.48;7.72;;;;;;;;;;5040151;28;20474;-62
2022/04/27 14:44:50;;;;;;;13.30;8.30;;;;;;;;;;5031717;28;20021;-62
2022/04/27 14:47:15;;;;;;;11.88;8.40;;;;;;;;;;5031433;28;20033;-61
2022/04/27 14:49:41;;;;;;;12.10;8.60;;;;;;;;;;5048055;28;20033;-61
2022/04/27 14:52:07;;;;;;;14.95;8.50;;;;;;;;;;5024041;28;20033;-61
2022/04/27 14:54:32;;;;;;;11.00;8.55;;;;;;;;;;5027242;28;20049;-61
2022/04/27 14:56:58;;;;;;;13.50;9.23;;;;;;;;;;5050855;28;20039;-61
2022/04/27 14:59:23;;;;;;;10.75;7.78;;;;;;;;;;5048758;28;20025;-62
2022/04/27 15:01:49;;;;;;;14.48;8.40;;;;;;;;;;5050701;28;20056;-61